Skip to Main Content
SEARCH:
Location Air RH Dwp Precip Type Wind Speed Wind Gust Direction Pavement Temperature Date/Time
Hatem Bridge US 40 E/B - - - No Data Available - - No Data Available -
I-270 at I-370 72 64 59 None Calm Calm N 77 - 82 9/23/2017 10:20:00 AM
I-270 at MD-109 73 73 64 None Calm 4 mph N 81 - 81 9/23/2017 10:20:00 AM
I-495 at American Legion Bridge 74 70 64 None Calm 5 mph NW 87 - 88 9/23/2017 10:20:00 AM
I-68 at MD-219 70 57 54 None Calm 5 mph E 79 - 82 9/23/2017 10:20:00 AM
I-68 at Savage Mt 71 52 52 None Calm 4 mph N 78 - 79 9/23/2017 10:20:00 AM
I-68 at Sideling Hill 73 53 55 None 5 mph 8 mph NE 86 - 88 9/23/2017 10:20:00 AM
I-68 at WV Line 64 85 60 None Calm Calm S 75 - 78 9/23/2017 10:20:00 AM
I-695 at I-83 76 55 59 None Calm 8 mph NE 84 - 88 9/23/2017 10:20:00 AM
I-70 at Fred-Wash Co. - - - No Data Available - - No Data Available -
I-70 at I-695 75 60 60 None Calm 7 mph SW 81 - 86 9/23/2017 10:20:00 AM
I-70 at I-81 74 62 60 None Calm 4 mph W - 9/23/2017 10:20:00 AM
I-70 at MD-27 73 64 60 None Calm 6 mph NE 85 - 86 9/23/2017 10:20:00 AM
I-70 at MD-32 73 69 62 None Calm Calm W 79 - 85 9/23/2017 10:20:00 AM
I-83 at MD-137 77 61 63 None Calm 5 mph NW 87 - 87 9/23/2017 10:20:00 AM
I-95 at I-695 NE 76 52 57 None 6 mph 7 mph N 86 - 95 9/23/2017 10:21:00 AM
I-95 at Patuxent River 74 63 60 None 5 mph 11 mph N 82 - 86 9/23/2017 10:20:00 AM
I-95 at Tydings Bridge 77 60 62 None Calm 4 mph NW - 9/23/2017 10:20:00 AM
I-95/495 at I-295 86 45 62 None Calm 5 mph NW 77 - 87 9/23/2017 10:20:00 AM
I-97 at MD-100 76 60 61 None Calm 6 mph N 81 - 84 9/23/2017 10:20:00 AM
I-97 at MD-32 74 58 59 None 13 mph 16 mph N 81 - 85 9/23/2017 10:20:00 AM
MD 20 at MD 21 76 55 59 None 5 mph 8 mph N 95 - 95 9/23/2017 10:20:00 AM
MD 231 at Patuxent River 76 66 64 None 8 mph 11 mph N 81 - 86 9/23/2017 10:20:00 AM
MD 260 at Cox Rd 74 66 62 None Calm Calm N 92 - 92 9/23/2017 10:20:00 AM
MD-135 at Salt Dome 68 66 56 None Calm 5 mph N 83 - 83 9/23/2017 10:20:00 AM
MD-140 at MD-97 73 64 60 None 4 mph 9 mph NW 86 - 86 9/23/2017 10:20:00 AM
MD-200 EB at Bonifant Rd 72 67 61 None 5 mph 6 mph NW 79 - 84 9/23/2017 10:21:00 AM
MD-200 WB at Muncaster Mill Rd 71 78 64 None Calm 7 mph E 77 - 80 9/23/2017 10:21:00 AM
MD-213 at Sassafras River 76 62 62 None 4 mph 9 mph E 92 - 92 9/23/2017 10:20:00 AM
MD-24 at Rock St Park 68 100 68 None Calm Calm NE 82 - 82 9/23/2017 10:20:00 AM
MD-30 at PA Line 71 69 60 None 5 mph 8 mph NW 84 - 84 9/23/2017 10:20:00 AM
MD-301 at MD-305 75 64 62 None 4 mph 7 mph NW 92 - 96 9/23/2017 10:20:00 AM
MD-33 at Knapps Narrows Drawbridge 75 66 63 None 9 mph 14 mph N 93 - 93 9/23/2017 10:20:00 AM
MD-344 at MD-224 73 67 61 None Calm 5 mph N - 9/23/2017 10:20:00 AM
MD-4 at Patuxent River 74 75 66 None - - No Data Available 84 - 84 9/23/2017 10:20:00 AM
MD-404 at Choptank River 75 60 60 None 5 mph 10 mph N 89 - 91 9/23/2017 10:20:00 AM
MD-43 at MD-150 - - - No Data Available - - No Data Available -
MD-51 at Oldtown Salt Dome 65 79 58 None 4 mph 7 mph W 85 - 85 9/23/2017 10:20:00 AM
MD-64 at MD-418 70 68 59 None Calm Calm W 88 - 91 9/23/2017 10:20:00 AM
US-1 at Baltimore / Harford Co. Line 73 70 63 None Calm 6 mph E 79 - 81 9/23/2017 10:20:00 AM
US-1 at Conowingo Dam 75 67 63 None Calm Calm N 72 - 72 9/23/2017 10:20:00 AM
US-13 at US-113 75 70 65 None Calm 10 mph NE 99 - 99 9/23/2017 10:20:00 AM
US-13 at US-50 - - - No Data Available - - No Data Available -
US-15 at MD-140 77 53 59 None Calm 5 mph W 82 - 88 9/23/2017 10:20:00 AM
US-301 at MD-5 76 60 61 None Calm 8 mph N 85 - 87 9/23/2017 10:20:00 AM
US-301 at Potomac 74 72 65 None 7 mph 10 mph N 88 - 90 9/23/2017 10:20:00 AM
US-301 on HWN Bridge 71 70 61 None 11 mph 13 mph NW 73 - 73 9/23/2017 10:24:00 AM
US-340 at MD-180 65 81 59 None Calm Calm N 73 - 74 9/23/2017 10:20:00 AM
US-50 at Choptank 77 63 63 None 4 mph 8 mph N 82 - 88 9/23/2017 10:20:00 AM
US-50 at I-95 78 53 60 None Calm 4 mph NW 78 - 89 9/23/2017 10:20:00 AM
US-50 at MD-2 75 57 59 None Calm 7 mph N 76 - 82 9/23/2017 10:20:00 AM
US-50 at MD-331 77 62 63 None 5 mph 10 mph N 88 - 91 9/23/2017 10:20:00 AM
US-50 at OC Drawbridge 75 71 65 None 8 mph 14 mph N 93 - 93 9/23/2017 10:20:00 AM
US-50 at Table Rock Rd 67 65 55 None Calm 6 mph E 79 - 79 9/23/2017 10:20:00 AM
US-50 Kent Narrow Bridge 76 65 63 None 7 mph 12 mph NW 88 - 90 9/23/2017 10:20:00 AM
WPL Pier 31 - - - No Data Available - - No Data Available - 9/23/2017 10:21:00 AM
Location Air RH Dwp Precip Type Wind Speed Wind Gust Direction Pavement Temperature Date/Time